createdAt,value
2022-08-17T00:02:26.424Z,98877.31
2022-08-17T00:05:32.616Z,98874.63
2022-08-17T00:08:49.747Z,98874.31
2022-08-17T00:12:41.924Z,98883.44
2022-08-17T00:15:15.161Z,98881.06
2022-08-17T00:19:01.034Z,98873.63
2022-08-17T00:22:32.499Z,98879.19
2022-08-17T00:25:07.362Z,98880.69
2022-08-17T00:28:09.587Z,98883.66
2022-08-17T00:31:11.649Z,98885.31
2022-08-17T00:34:13.427Z,98877.88
2022-08-17T00:37:15.340Z,98879.75
2022-08-17T00:40:18.211Z,98881.66
2022-08-17T00:43:31.029Z,98883.00
2022-08-17T00:46:39.313Z,98887.22
2022-08-17T00:49:41.122Z,98891.16
2022-08-17T00:52:48.595Z,98883.13
2022-08-17T00:55:50.809Z,98886.91
2022-08-17T00:58:54.352Z,98890.75
2022-08-17T01:01:56.069Z,98894.72
2022-08-17T01:04:57.816Z,98890.75
2022-08-17T01:08:01.038Z,98890.81
2022-08-17T01:11:03.166Z,98891.63
2022-08-17T01:14:04.946Z,98892.22
2022-08-17T01:17:07.473Z,98894.78
2022-08-17T01:20:09.202Z,98898.47
2022-08-17T01:23:10.976Z,98896.09
2022-08-17T01:26:18.556Z,98892.13
2022-08-17T01:29:21.774Z,98903.13
2022-08-17T01:32:23.623Z,98900.66
2022-08-17T01:35:25.536Z,98894.22
2022-08-17T01:38:31.663Z,98896.91
2022-08-17T01:41:34.258Z,98903.03
2022-08-17T01:44:36.063Z,98900.66
2022-08-17T01:47:41.835Z,98904.91
2022-08-17T01:50:44.626Z,98912.16
2022-08-17T01:53:51.903Z,98912.72
2022-08-17T01:56:53.741Z,98923.19
2022-08-17T01:59:55.535Z,98930.91
2022-08-17T02:02:57.337Z,98930.13
2022-08-17T02:05:59.037Z,98939.03
2022-08-17T02:09:02.498Z,98942.78
2022-08-17T02:12:37.991Z,98944.75
2022-08-17T02:15:27.463Z,98950.09
2022-08-17T02:18:30.216Z,98946.69
2022-08-17T02:21:32.421Z,98953.69
2022-08-17T02:24:58.812Z,98951.59
2022-08-17T02:27:58.474Z,98958.38
2022-08-17T02:31:07.895Z,98964.00
2022-08-17T02:34:09.771Z,98960.53
2022-08-17T02:37:11.796Z,98957.63
2022-08-17T02:40:13.520Z,98965.94
2022-08-17T02:43:15.700Z,98967.31
2022-08-17T02:46:17.366Z,98975.13
2022-08-17T02:49:19.139Z,98973.81
2022-08-17T02:52:43.302Z,98962.59
2022-08-17T02:55:44.655Z,98969.16
2022-08-17T02:58:46.451Z,98961.72
2022-08-17T03:01:48.297Z,98970.28
2022-08-17T03:04:50.099Z,98969.25
2022-08-17T03:07:52.405Z,98969.78
2022-08-17T03:10:54.099Z,98968.94
2022-08-17T03:13:55.973Z,98965.50
2022-08-17T03:16:58.050Z,98968.69
2022-08-17T03:20:00.045Z,98960.16
2022-08-17T03:23:02.852Z,98963.13
2022-08-17T03:26:05.127Z,98959.16
2022-08-17T03:29:18.890Z,98970.34
2022-08-17T03:32:20.846Z,98970.84
2022-08-17T03:35:25.710Z,98970.28
2022-08-17T03:38:27.839Z,98966.03
2022-08-17T03:41:29.619Z,98964.50
2022-08-17T03:44:31.395Z,98971.44
2022-08-17T03:47:51.598Z,98971.38
2022-08-17T03:51:14.768Z,98968.47
2022-08-17T03:54:35.273Z,98973.81
2022-08-17T03:57:37.134Z,98973.81
2022-08-17T04:00:40.480Z,98979.94
2022-08-17T04:03:42.220Z,98985.84
2022-08-17T04:06:44.503Z,98989.03
2022-08-17T04:09:46.603Z,98993.31
2022-08-17T04:12:51.446Z,98983.41
2022-08-17T04:15:53.890Z,98991.78
2022-08-17T04:18:55.703Z,98992.56
2022-08-17T04:22:00.206Z,98989.91
2022-08-17T04:25:09.850Z,98976.31
2022-08-17T04:28:15.674Z,98997.44
2022-08-17T04:31:18.171Z,98982.81
2022-08-17T04:34:20.469Z,98994.03
2022-08-17T04:37:22.150Z,98992.66
2022-08-17T04:40:44.363Z,98995.00
2022-08-17T04:43:47.973Z,98987.53
2022-08-17T04:46:49.667Z,98992.00
2022-08-17T04:49:51.375Z,99000.81
2022-08-17T04:52:53.059Z,99006.41
2022-08-17T04:55:57.235Z,99004.38
2022-08-17T04:59:05.836Z,99008.34
2022-08-17T05:02:07.530Z,98999.31
2022-08-17T05:05:09.381Z,99003.56
2022-08-17T05:08:11.159Z,99015.56
2022-08-17T05:11:13.611Z,99011.03
2022-08-17T05:14:15.502Z,99019.56
2022-08-17T05:17:17.168Z,99018.19
2022-08-17T05:20:20.985Z,99018.25
2022-08-17T05:23:24.227Z,99028.13
2022-08-17T05:26:27.718Z,99043.13
2022-08-17T05:29:35.498Z,99033.56
2022-08-17T05:32:40.409Z,99048.28
2022-08-17T05:35:49.177Z,99047.69
2022-08-17T05:38:50.851Z,99051.94
2022-08-17T05:41:52.659Z,99059.94
2022-08-17T05:44:57.856Z,99063.69
2022-08-17T05:47:59.547Z,99067.72
2022-08-17T05:51:25.437Z,99070.84
2022-08-17T05:54:39.653Z,99078.31
2022-08-17T05:57:53.524Z,99080.75
2022-08-17T06:01:21.082Z,99083.84
2022-08-17T06:04:31.925Z,99091.41
2022-08-17T06:08:06.487Z,99083.66
2022-08-17T06:11:22.884Z,99078.09
2022-08-17T06:14:47.522Z,99086.88
2022-08-17T06:17:59.245Z,99079.91
2022-08-17T06:21:03.863Z,99090.00
2022-08-17T06:24:23.922Z,99095.34
2022-08-17T06:27:32.810Z,99093.44
2022-08-17T06:30:59.366Z,99091.13
2022-08-17T06:34:04.601Z,99091.44
2022-08-17T06:37:34.526Z,99091.25
2022-08-17T06:40:49.371Z,99091.84
2022-08-17T06:44:00.798Z,99086.00
2022-08-17T06:47:12.555Z,99097.53
2022-08-17T06:50:27.417Z,99086.91
2022-08-17T06:53:47.778Z,99083.94
2022-08-17T06:56:59.581Z,99100.47
2022-08-17T07:00:24.638Z,99096.75
2022-08-17T07:03:54.603Z,99104.22
2022-08-17T07:07:23.703Z,99114.38
2022-08-17T07:10:26.522Z,99107.91
2022-08-17T07:13:38.740Z,99109.19
2022-08-17T07:16:46.428Z,99105.78
2022-08-17T07:19:49.823Z,99115.91
2022-08-17T07:23:15.774Z,99109.19
2022-08-17T07:26:17.527Z,99117.19
2022-08-17T07:29:19.946Z,99114.00
2022-08-17T07:32:26.393Z,99115.91
2022-08-17T07:35:44.016Z,99107.41
2022-08-17T07:38:57.642Z,99113.00
2022-08-17T07:42:04.229Z,99116.75
2022-08-17T07:45:27.951Z,99112.75
2022-08-17T07:48:29.810Z,99114.38
2022-08-17T07:51:36.529Z,99117.31
2022-08-17T07:54:41.339Z,99120.22
2022-08-17T07:57:43.078Z,99120.91
2022-08-17T08:00:45.760Z,99121.84
2022-08-17T08:03:49.383Z,99123.13
2022-08-17T08:06:57.751Z,99119.84
2022-08-17T08:10:00.911Z,99113.41
2022-08-17T08:13:12.280Z,99127.25
2022-08-17T08:16:29.275Z,99121.72
2022-08-17T08:19:31.926Z,99111.28
2022-08-17T08:22:46.084Z,99102.59
2022-08-17T08:25:53.588Z,99109.06
2022-08-17T08:29:28.376Z,99115.22
2022-08-17T08:32:48.599Z,99116.56
2022-08-17T08:36:02.832Z,99124.47
2022-08-17T08:39:13.669Z,99124.66
2022-08-17T08:42:21.512Z,99127.78
2022-08-17T08:45:31.928Z,99145.59
2022-08-17T08:49:12.026Z,99137.22
2022-08-17T08:52:53.400Z,99139.69
2022-08-17T08:56:00.149Z,99139.38
2022-08-17T08:59:23.673Z,99146.88
2022-08-17T09:03:06.244Z,99152.88
2022-08-17T09:06:32.175Z,99152.63
2022-08-17T09:09:50.259Z,99153.84
2022-08-17T09:12:55.455Z,99135.84
2022-08-17T09:16:06.196Z,99155.66
2022-08-17T09:19:22.606Z,99154.47
2022-08-17T09:22:31.618Z,99148.28
2022-08-17T09:25:49.852Z,99151.94
2022-08-17T09:28:53.876Z,99148.63
2022-08-17T09:31:58.474Z,99143.81
2022-08-17T09:35:36.678Z,99150.88
2022-08-17T09:38:48.035Z,99152.94
2022-08-17T09:42:06.788Z,99155.34
2022-08-17T09:45:23.630Z,99145.00
2022-08-17T09:48:30.299Z,99148.03
2022-08-17T09:51:36.851Z,99146.16
2022-08-17T09:54:40.879Z,99148.56
2022-08-17T09:57:59.971Z,99149.50
2022-08-17T10:01:29.452Z,99152.78
2022-08-17T10:04:43.314Z,99144.78
2022-08-17T10:07:59.927Z,99152.09
2022-08-17T10:11:15.479Z,99150.13
2022-08-17T10:14:43.796Z,99156.00
2022-08-17T10:17:59.811Z,99143.28
2022-08-17T10:21:31.172Z,99144.06
2022-08-17T10:25:21.386Z,99145.31
2022-08-17T10:28:28.922Z,99142.31
2022-08-17T10:31:35.882Z,99144.06
2022-08-17T10:34:44.293Z,99142.75
2022-08-17T10:37:59.340Z,99136.56
2022-08-17T10:41:28.864Z,99130.13
2022-08-17T10:44:47.477Z,99151.50
2022-08-17T10:48:04.305Z,99140.94
2022-08-17T10:51:12.888Z,99135.94
2022-08-17T10:54:46.790Z,99138.69
2022-08-17T10:57:50.505Z,99145.22
2022-08-17T11:00:53.378Z,99149.25
2022-08-17T11:03:57.312Z,99155.06
2022-08-17T11:07:02.264Z,99141.22
2022-08-17T11:10:33.584Z,99141.03
2022-08-17T11:14:04.684Z,99147.75
2022-08-17T11:17:18.937Z,99144.22
2022-08-17T11:20:24.006Z,99146.88
2022-08-17T11:23:48.416Z,99138.47
2022-08-17T11:27:14.326Z,99142.78
2022-08-17T11:30:51.835Z,99139.72
2022-08-17T11:34:00.856Z,99134.28
2022-08-17T11:37:24.460Z,99135.25
2022-08-17T11:40:46.494Z,99124.69
2022-08-17T11:44:20.844Z,99130.75
2022-08-17T11:48:23.628Z,99126.59
2022-08-17T11:51:36.780Z,99128.13
2022-08-17T11:55:12.398Z,99132.31
2022-08-17T11:58:30.186Z,99134.44
2022-08-17T12:01:51.679Z,99124.97
2022-08-17T12:05:12.498Z,99120.56
2022-08-17T12:08:21.609Z,99124.13
2022-08-17T12:12:11.202Z,99124.56
2022-08-17T12:15:11.543Z,99119.41
2022-08-17T12:18:42.357Z,99122.00
2022-08-17T12:21:53.837Z,99120.81
2022-08-17T12:25:19.303Z,99120.06
2022-08-17T12:28:30.027Z,99116.28
2022-08-17T12:31:36.338Z,99112.16
2022-08-17T12:34:43.328Z,99107.75
2022-08-17T12:37:47.530Z,99104.69
2022-08-17T12:40:54.724Z,99105.16
2022-08-17T12:44:23.302Z,99108.50
2022-08-17T12:47:25.926Z,99103.03
2022-08-17T12:50:32.231Z,99102.09
2022-08-17T12:53:36.707Z,99096.00
2022-08-17T12:56:38.453Z,99083.56
2022-08-17T12:59:41.493Z,99085.66
2022-08-17T13:03:03.435Z,99090.53
2022-08-17T13:06:09.550Z,99091.41
2022-08-17T13:09:35.715Z,99093.59
2022-08-17T13:12:42.195Z,99085.28
2022-08-17T13:15:59.471Z,99089.03
2022-08-17T13:19:10.602Z,99088.63
2022-08-17T13:22:13.993Z,99085.94
2022-08-17T13:25:16.744Z,99094.22
2022-08-17T13:28:30.773Z,99095.09
2022-08-17T13:31:52.464Z,99096.63
2022-08-17T13:35:15.208Z,99099.75
2022-08-17T13:38:45.894Z,99105.47
2022-08-17T13:41:49.180Z,99099.91
2022-08-17T13:44:51.022Z,99095.88
2022-08-17T13:48:10.921Z,99102.50
2022-08-17T13:51:23.184Z,99096.34
2022-08-17T13:54:27.430Z,99109.69
2022-08-17T13:57:29.196Z,99108.91
2022-08-17T14:00:36.448Z,99099.63
2022-08-17T14:03:38.232Z,99096.94
2022-08-17T14:06:52.848Z,99094.13
2022-08-17T14:10:06.193Z,99077.19
2022-08-17T14:13:08.315Z,99079.75
2022-08-17T14:16:10.020Z,99073.16
2022-08-17T14:19:13.244Z,99071.63
2022-08-17T14:22:19.714Z,99073.28
2022-08-17T14:25:27.530Z,99072.38
2022-08-17T14:28:29.251Z,99071.34
2022-08-17T14:31:35.363Z,99066.47
2022-08-17T14:34:39.052Z,99068.94
2022-08-17T14:37:40.751Z,99074.47
2022-08-17T14:40:43.042Z,99076.03
2022-08-17T14:43:46.299Z,99073.09
2022-08-17T14:46:50.579Z,99079.34
2022-08-17T14:49:52.982Z,99077.50
2022-08-17T14:52:57.994Z,99073.22
2022-08-17T14:56:01.782Z,99074.22
2022-08-17T14:59:03.618Z,99068.84
2022-08-17T15:02:05.519Z,99068.63
2022-08-17T15:05:07.826Z,99077.69
2022-08-17T15:08:09.578Z,99061.22
2022-08-17T15:11:14.273Z,99061.75
2022-08-17T15:14:16.442Z,99073.50
2022-08-17T15:17:18.197Z,99071.25
2022-08-17T15:20:23.892Z,99062.88
2022-08-17T15:23:27.014Z,99068.97
2022-08-17T15:26:28.767Z,99068.03
2022-08-17T15:29:30.535Z,99057.22
2022-08-17T15:32:34.935Z,99062.44
2022-08-17T15:35:37.429Z,99055.13
2022-08-17T15:38:41.970Z,99066.38
2022-08-17T15:41:47.331Z,99064.00
2022-08-17T15:45:06.091Z,99060.47
2022-08-17T15:48:08.949Z,99054.78
2022-08-17T15:51:15.039Z,99053.66
2022-08-17T15:54:19.310Z,99047.81
2022-08-17T15:57:25.704Z,99044.47
2022-08-17T16:00:29.298Z,99045.03
2022-08-17T16:04:01.182Z,99035.47
2022-08-17T16:06:53.703Z,99034.19
2022-08-17T16:09:55.666Z,99031.84
2022-08-17T16:12:58.704Z,99034.19
2022-08-17T16:16:00.383Z,99044.38
2022-08-17T16:19:02.073Z,99043.84
2022-08-17T16:22:05.938Z,99046.69
2022-08-17T16:25:11.305Z,99039.59
2022-08-17T16:28:14.782Z,99047.38
2022-08-17T16:31:16.668Z,99054.84
2022-08-17T16:34:19.102Z,99052.25
2022-08-17T16:37:20.865Z,99053.53
2022-08-17T16:40:26.020Z,99054.66
2022-08-17T16:43:29.283Z,99052.53
2022-08-17T16:46:31.720Z,99059.41
2022-08-17T16:49:37.396Z,99065.06
2022-08-17T16:52:40.554Z,99066.13
2022-08-17T16:55:42.766Z,99069.34
2022-08-17T16:58:44.922Z,99071.66
2022-08-17T17:01:47.866Z,99081.03
2022-08-17T17:05:19.402Z,99080.13
2022-08-17T17:08:26.826Z,99071.31
2022-08-17T17:11:50.925Z,99072.44
2022-08-17T17:14:53.417Z,99062.97
2022-08-17T17:17:59.886Z,99062.00
2022-08-17T17:21:13.461Z,99060.22
2022-08-17T17:24:30.354Z,99062.78
2022-08-17T17:27:47.580Z,99067.72
2022-08-17T17:31:08.293Z,99074.47
2022-08-17T17:34:13.758Z,99072.06
2022-08-17T17:37:26.396Z,99078.41
2022-08-17T17:40:40.920Z,99072.19
2022-08-17T17:43:43.018Z,99072.28
2022-08-17T17:46:49.479Z,99069.66
2022-08-17T17:49:51.345Z,99072.09
2022-08-17T17:52:59.545Z,99070.78
2022-08-17T17:56:18.827Z,99066.09
2022-08-17T17:59:49.758Z,99064.06
2022-08-17T18:03:15.723Z,99069.84
2022-08-17T18:06:32.175Z,99063.16
2022-08-17T18:09:53.796Z,99071.72
2022-08-17T18:13:08.702Z,99068.00
2022-08-17T18:16:12.856Z,99061.78
2022-08-17T18:19:19.947Z,99054.50
2022-08-17T18:22:22.467Z,99046.00
2022-08-17T18:25:44.515Z,99054.69
2022-08-17T18:28:46.113Z,99065.25
2022-08-17T18:31:47.988Z,99066.59
2022-08-17T18:34:51.516Z,99069.69
2022-08-17T18:38:42.029Z,99066.34
2022-08-17T18:41:47.166Z,99066.25
2022-08-17T18:44:54.311Z,99072.78
2022-08-17T18:47:57.870Z,99084.53
2022-08-17T18:51:41.007Z,99088.78
2022-08-17T18:55:08.545Z,99090.38
2022-08-17T18:58:16.620Z,99078.56
2022-08-17T19:01:20.947Z,99083.09
2022-08-17T19:04:37.054Z,99079.09
2022-08-17T19:07:40.137Z,99074.72
2022-08-17T19:10:49.475Z,99077.69
2022-08-17T19:13:58.563Z,99070.78
2022-08-17T19:17:12.296Z,99061.94
2022-08-17T19:20:26.904Z,99065.00
2022-08-17T19:23:37.554Z,99063.44
2022-08-17T19:26:50.598Z,99065.88
2022-08-17T19:30:01.632Z,99069.13
2022-08-17T19:33:05.874Z,99060.19
2022-08-17T19:36:22.008Z,99061.50
2022-08-17T19:39:38.713Z,99067.31
2022-08-17T19:42:55.807Z,99073.75
2022-08-17T19:46:12.309Z,99072.28
2022-08-17T19:49:33.181Z,99071.06
2022-08-17T19:52:46.525Z,99070.59
2022-08-17T19:56:08.596Z,99069.88
2022-08-17T19:59:21.414Z,99065.19
2022-08-17T20:02:47.488Z,99069.75
2022-08-17T20:06:13.750Z,99069.75
2022-08-17T20:09:20.712Z,99072.13
2022-08-17T20:12:26.886Z,99073.03
2022-08-17T20:15:31.425Z,99072.38
2022-08-17T20:18:54.822Z,99076.88
2022-08-17T20:22:01.067Z,99066.94
2022-08-17T20:25:30.360Z,99064.56
2022-08-17T20:28:35.576Z,99070.22
2022-08-17T20:31:55.686Z,99059.78
2022-08-17T20:35:05.415Z,99061.53
2022-08-17T20:38:13.246Z,99061.69
2022-08-17T20:41:22.773Z,99052.66
2022-08-17T20:44:36.899Z,99055.72
2022-08-17T20:48:01.164Z,99052.53
2022-08-17T20:51:18.056Z,99046.59
2022-08-17T20:54:19.744Z,99046.97
2022-08-17T20:57:36.715Z,99048.16
2022-08-17T21:00:40.433Z,99051.50
2022-08-17T21:03:51.261Z,99054.47
2022-08-17T21:07:41.055Z,99048.50
2022-08-17T21:10:47.079Z,99049.03
2022-08-17T21:14:31.115Z,99056.13
2022-08-17T21:18:12.058Z,99067.75
2022-08-17T21:21:25.986Z,99051.69
2022-08-17T21:24:35.815Z,99041.50
2022-08-17T21:27:46.083Z,99047.91
2022-08-17T21:30:54.104Z,99040.97
2022-08-17T21:34:15.425Z,99038.41
2022-08-17T21:37:19.971Z,99032.97
2022-08-17T21:40:27.585Z,99029.94
2022-08-17T21:43:32.761Z,99020.88
2022-08-17T21:46:38.555Z,99021.88
2022-08-17T21:49:41.642Z,99011.66
2022-08-17T21:52:43.678Z,99024.25
2022-08-17T21:55:48.716Z,99022.38
2022-08-17T21:59:08.153Z,99028.81
2022-08-17T22:02:20.353Z,99024.59
2022-08-17T22:05:36.243Z,99020.41
2022-08-17T22:08:37.908Z,99028.84
2022-08-17T22:11:56.725Z,99020.75
2022-08-17T22:15:00.891Z,99026.50
2022-08-17T22:18:05.880Z,99030.84
2022-08-17T22:21:10.763Z,99025.81
2022-08-17T22:24:21.731Z,99028.75
2022-08-17T22:27:45.487Z,99033.75
2022-08-17T22:31:14.963Z,99040.00
2022-08-17T22:34:17.379Z,99046.25
2022-08-17T22:37:20.874Z,99040.00
2022-08-17T22:40:34.469Z,99045.16
2022-08-17T22:43:38.253Z,99043.66
2022-08-17T22:47:11.124Z,99036.06
2022-08-17T22:50:25.486Z,99030.31
2022-08-17T22:54:02.456Z,99038.59
2022-08-17T22:57:24.233Z,99027.56
2022-08-17T23:00:42.572Z,99025.81
2022-08-17T23:03:58.904Z,99016.22
2022-08-17T23:07:00.584Z,99020.78
2022-08-17T23:10:06.380Z,99013.41
2022-08-17T23:13:11.903Z,99009.00
2022-08-17T23:16:14.920Z,98997.84
2022-08-17T23:19:20.952Z,98994.78
2022-08-17T23:22:23.019Z,98985.69
2022-08-17T23:25:28.055Z,98988.00
2022-08-17T23:28:29.804Z,98980.13
2022-08-17T23:31:38.563Z,98974.88
2022-08-17T23:34:41.293Z,98992.63
2022-08-17T23:37:42.950Z,98976.22
2022-08-17T23:40:44.695Z,98974.78
2022-08-17T23:43:48.854Z,98976.44
2022-08-17T23:46:51.878Z,98967.38
2022-08-17T23:49:54.102Z,98964.97
2022-08-17T23:52:56.648Z,98957.56
2022-08-17T23:56:09.243Z,98946.06
2022-08-17T23:59:13.624Z,98938.50
